Time;durP1;ratioP1;P1;durP2;ratioP2;P2;SDS_P1;SDS_P2;PMS_P1;PMS_P2;Temp;Humidity;BMP_temperature;BMP_pressure;BME280_temperature;BME280_humidity;BME280_pressure;Samples;Min_cycle;Max_cycle;Signal;HPM_P1;HPM_P2
2023/03/19 00:02:19;;;;;;;34.55;23.83;;;9.60;99.90;;;;;;4968403;28;20045;-82
2023/03/19 00:04:45;;;;;;;29.52;23.50;;;9.60;99.90;;;;;;4935475;28;20138;-82
2023/03/19 00:07:11;;;;;;;30.10;23.80;;;9.70;99.90;;;;;;4950368;28;20054;-82
2023/03/19 00:09:37;;;;;;;28.17;23.25;;;9.60;99.90;;;;;;4951967;28;20047;-82
2023/03/19 00:12:03;;;;;;;30.20;22.60;;;9.60;99.90;;;;;;4935526;28;20049;-82
2023/03/19 00:14:29;;;;;;;29.65;23.65;;;9.70;99.90;;;;;;4951461;28;20062;-82
2023/03/19 00:16:55;;;;;;;29.80;22.88;;;9.70;99.90;;;;;;4951707;28;20047;-82
2023/03/19 00:19:21;;;;;;;28.20;24.13;;;9.70;99.90;;;;;;4935187;28;20058;-83
2023/03/19 00:21:47;;;;;;;28.63;23.77;;;9.60;99.90;;;;;;4966992;28;20043;-82
2023/03/19 00:24:13;;;;;;;28.48;23.02;;;9.70;99.90;;;;;;4951722;28;20057;-82
2023/03/19 00:26:38;;;;;;;30.88;23.25;;;9.60;99.90;;;;;;4951187;28;20051;-82
2023/03/19 00:29:05;;;;;;;29.52;22.23;;;9.60;99.90;;;;;;4951697;28;20082;-81
2023/03/19 00:31:31;;;;;;;31.85;24.15;;;9.60;99.90;;;;;;4967963;28;20435;-81
2023/03/19 00:33:58;;;;;;;29.40;23.40;;;9.60;99.90;;;;;;4951590;28;20059;-82
2023/03/19 00:36:27;;;;;;;28.83;23.95;;;9.50;99.90;;;;;;4935319;28;20108;-82
2023/03/19 00:38:52;;;;;;;32.95;24.83;;;9.50;99.90;;;;;;4936097;28;20372;-82
2023/03/19 00:41:19;;;;;;;30.65;24.55;;;9.40;99.90;;;;;;4934643;28;20051;-82
2023/03/19 00:43:46;;;;;;;29.73;24.55;;;9.40;99.90;;;;;;4935634;28;20066;-82
2023/03/19 00:46:11;;;;;;;27.55;23.58;;;9.40;99.90;;;;;;4950505;28;20042;-82
2023/03/19 00:48:37;;;;;;;31.33;24.88;;;9.40;99.90;;;;;;4950846;28;20402;-82
2023/03/19 00:51:07;;;;;;;30.65;24.50;;;9.40;99.90;;;;;;4934365;28;20491;-82
2023/03/19 00:53:37;;;;;;;31.13;25.05;;;9.30;99.90;;;;;;4935557;28;20514;-82
2023/03/19 00:56:03;;;;;;;31.80;25.73;;;9.40;99.90;;;;;;4934628;28;20058;-82
2023/03/19 00:58:29;;;;;;;29.55;24.88;;;9.40;99.90;;;;;;4955051;28;20043;-82
2023/03/19 01:00:55;;;;;;;33.38;25.45;;;9.40;99.90;;;;;;4954615;28;20047;-83
2023/03/19 01:03:21;;;;;;;33.28;25.52;;;9.40;99.90;;;;;;4938322;28;20482;-82
2023/03/19 01:05:48;;;;;;;35.42;27.63;;;9.40;99.90;;;;;;4969893;28;20054;-82
2023/03/19 01:08:16;;;;;;;32.58;26.25;;;9.50;99.90;;;;;;4970632;28;20447;-83
2023/03/19 01:10:42;;;;;;;33.17;26.42;;;9.40;99.90;;;;;;4969730;28;20088;-82
2023/03/19 01:13:08;;;;;;;34.35;25.55;;;9.50;99.90;;;;;;4938637;28;20572;-83
2023/03/19 01:15:36;;;;;;;34.15;25.85;;;9.50;99.90;;;;;;4954009;28;20089;-82
2023/03/19 01:18:02;;;;;;;32.88;26.35;;;9.50;99.90;;;;;;4954870;28;20130;-83
2023/03/19 01:20:27;;;;;;;28.58;24.33;;;9.50;99.90;;;;;;4954061;28;20134;-82
2023/03/19 01:22:53;;;;;;;30.55;23.85;;;9.50;99.90;;;;;;4953711;28;20366;-82
2023/03/19 01:25:19;;;;;;;27.75;23.05;;;9.60;99.90;;;;;;4937927;28;20102;-82
2023/03/19 01:27:45;;;;;;;30.52;22.73;;;9.60;99.90;;;;;;4938803;28;20078;-82
2023/03/19 01:30:10;;;;;;;28.30;22.65;;;9.60;99.90;;;;;;4953798;28;20055;-83
2023/03/19 01:32:36;;;;;;;29.77;22.23;;;9.60;99.90;;;;;;4954029;28;20383;-82
2023/03/19 01:35:02;;;;;;;26.23;21.00;;;9.60;99.90;;;;;;4937518;28;20050;-82
2023/03/19 01:37:28;;;;;;;27.25;19.40;;;9.60;99.90;;;;;;4953299;28;20054;-82
2023/03/19 01:39:54;;;;;;;24.65;19.38;;;9.60;99.90;;;;;;4954055;28;20130;-82
2023/03/19 01:42:20;;;;;;;21.30;18.42;;;9.70;99.90;;;;;;4938253;28;20510;-82
2023/03/19 01:44:46;;;;;;;21.50;17.77;;;9.70;99.90;;;;;;4937068;28;20062;-82
2023/03/19 01:47:21;;;;;;;23.77;17.35;;;9.70;99.90;;;;;;4970037;28;20043;-82
2023/03/19 01:49:52;;;;;;;20.50;16.30;;;9.70;99.90;;;;;;4954313;28;20046;-82
2023/03/19 01:52:19;;;;;;;19.50;15.80;;;9.80;99.90;;;;;;4969256;28;20078;-82
2023/03/19 01:54:45;;;;;;;23.45;17.00;;;9.70;99.90;;;;;;4953793;28;20050;-82
2023/03/19 01:57:13;;;;;;;25.30;16.42;;;9.80;99.90;;;;;;4953581;28;20054;-82
2023/03/19 01:59:42;;;;;;;20.73;16.85;;;9.80;99.90;;;;;;4952673;28;20047;-82
2023/03/19 02:02:18;;;;;;;19.05;16.25;;;9.80;99.90;;;;;;4953567;28;20076;-82
2023/03/19 02:04:46;;;;;;;22.10;15.55;;;9.80;99.90;;;;;;4937885;28;20042;-82
2023/03/19 02:07:12;;;;;;;20.48;15.93;;;9.80;99.90;;;;;;4968342;28;20066;-83
2023/03/19 02:09:39;;;;;;;23.90;16.25;;;9.90;99.90;;;;;;4953414;28;20395;-83
2023/03/19 02:12:07;;;;;;;20.40;16.05;;;9.90;99.90;;;;;;4936604;28;20058;-83
2023/03/19 02:14:33;;;;;;;21.98;15.82;;;9.90;99.90;;;;;;4953686;28;20058;-83
2023/03/19 02:16:59;;;;;;;24.20;16.92;;;9.90;99.90;;;;;;4953602;28;20483;-82
2023/03/19 02:19:42;;;;;;;24.50;15.73;;;9.90;99.90;;;;;;4952499;28;20043;-83
2023/03/19 02:22:09;;;;;;;20.20;15.63;;;9.90;99.90;;;;;;4936319;28;20585;-83
2023/03/19 02:24:43;;;;;;;23.15;14.25;;;9.90;99.90;;;;;;4937542;28;20509;-83
2023/03/19 02:27:09;;;;;;;19.08;14.25;;;9.90;99.90;;;;;;4968387;28;20133;-82
2023/03/19 02:29:35;;;;;;;20.65;13.93;;;9.90;99.90;;;;;;4953364;28;20186;-82
2023/03/19 02:32:02;;;;;;;19.42;15.00;;;9.90;99.90;;;;;;4968632;28;20127;-82
2023/03/19 02:34:36;;;;;;;18.77;14.30;;;9.90;99.90;;;;;;4936662;28;20137;-82
2023/03/19 02:37:08;;;;;;;19.83;14.82;;;9.80;99.90;;;;;;4969460;28;20042;-82
2023/03/19 02:39:42;;;;;;;23.88;15.93;;;9.80;99.90;;;;;;4937325;28;20089;-82
2023/03/19 02:42:11;;;;;;;23.30;15.43;;;9.80;99.90;;;;;;4936143;28;20203;-82
2023/03/19 02:44:37;;;;;;;21.70;16.08;;;9.80;99.90;;;;;;4952458;28;20085;-82
2023/03/19 02:47:03;;;;;;;23.90;16.88;;;9.80;99.90;;;;;;4936201;28;20085;-82
2023/03/19 02:49:29;;;;;;;22.23;16.92;;;9.80;99.90;;;;;;4936784;28;20050;-82
2023/03/19 02:51:55;;;;;;;22.77;16.60;;;9.70;99.90;;;;;;4952295;28;20043;-82
2023/03/19 02:54:20;;;;;;;22.67;16.55;;;9.70;99.90;;;;;;4968147;28;20584;-82
2023/03/19 02:56:46;;;;;;;23.85;16.77;;;9.80;99.90;;;;;;4952357;28;20185;-82
2023/03/19 02:59:12;;;;;;;22.73;15.98;;;9.70;99.90;;;;;;4952765;28;20050;-82
2023/03/19 03:01:37;;;;;;;22.85;15.05;;;9.80;99.90;;;;;;4935969;28;20042;-82
2023/03/19 03:04:04;;;;;;;21.35;15.02;;;9.70;99.90;;;;;;4952655;28;20526;-82
2023/03/19 03:06:29;;;;;;;20.55;15.95;;;9.70;99.90;;;;;;4968259;28;20404;-82
2023/03/19 03:08:55;;;;;;;22.70;15.68;;;9.70;99.90;;;;;;4956216;28;20398;-82
2023/03/19 03:11:21;;;;;;;20.75;14.98;;;9.70;99.90;;;;;;4960981;28;20081;-82
2023/03/19 03:13:47;;;;;;;21.90;14.07;;;9.70;99.90;;;;;;4961560;28;20042;-82
2023/03/19 03:16:14;;;;;;;21.95;15.27;;;9.70;99.90;;;;;;4961689;28;20054;-81
2023/03/19 03:18:41;;;;;;;21.85;15.32;;;9.70;99.90;;;;;;4944710;28;20409;-81
2023/03/19 03:21:07;;;;;;;22.23;14.90;;;9.70;99.90;;;;;;4960099;28;20053;-81
2023/03/19 03:23:32;;;;;;;16.92;13.57;;;9.70;99.90;;;;;;4945953;28;20051;-81
2023/03/19 03:25:58;;;;;;;18.75;14.27;;;9.70;99.90;;;;;;4960142;28;20061;-80
2023/03/19 03:28:24;;;;;;;17.30;13.45;;;9.70;99.90;;;;;;4945741;28;20042;-81
2023/03/19 03:30:50;;;;;;;18.67;13.80;;;9.70;99.90;;;;;;4961196;28;20049;-81
2023/03/19 03:33:16;;;;;;;14.45;11.90;;;9.70;99.90;;;;;;4960131;28;20034;-81
2023/03/19 03:35:42;;;;;;;18.80;12.85;;;9.70;99.90;;;;;;4959911;28;20050;-81
2023/03/19 03:38:08;;;;;;;16.45;12.02;;;9.70;99.90;;;;;;4959958;28;20038;-80
2023/03/19 03:40:35;;;;;;;18.52;11.75;;;9.70;99.90;;;;;;4962134;28;20078;-81
2023/03/19 03:43:01;;;;;;;16.23;11.55;;;9.70;99.90;;;;;;4960597;28;20502;-81
2023/03/19 03:45:27;;;;;;;16.45;11.13;;;9.70;99.90;;;;;;4960049;28;20096;-81
2023/03/19 03:47:52;;;;;;;19.30;12.40;;;9.70;99.90;;;;;;4962220;28;20050;-80
2023/03/19 03:50:18;;;;;;;15.68;10.30;;;9.70;99.90;;;;;;4961206;28;20049;-80
2023/03/19 03:52:44;;;;;;;15.57;10.27;;;9.70;99.90;;;;;;4945491;28;20101;-80
2023/03/19 03:55:10;;;;;;;14.20;10.23;;;9.60;99.90;;;;;;4961667;28;20492;-80
2023/03/19 03:57:36;;;;;;;13.23;9.68;;;9.70;99.90;;;;;;4942766;28;20039;-80
2023/03/19 04:00:02;;;;;;;11.93;9.02;;;9.70;99.90;;;;;;4961617;28;20068;-81
2023/03/19 04:02:28;;;;;;;15.57;8.98;;;9.70;99.90;;;;;;4961523;28;20090;-81
2023/03/19 04:04:54;;;;;;;12.73;8.90;;;9.70;99.90;;;;;;4958346;28;20434;-80
2023/03/19 04:07:20;;;;;;;12.05;8.32;;;9.80;99.90;;;;;;4962049;28;20496;-80
2023/03/19 04:09:46;;;;;;;11.38;8.18;;;9.80;99.90;;;;;;4944931;28;20105;-80
2023/03/19 04:12:12;;;;;;;12.77;8.57;;;9.80;99.90;;;;;;4959538;28;20517;-81
2023/03/19 04:14:39;;;;;;;14.23;8.68;;;9.80;99.90;;;;;;4959625;28;20043;-80
2023/03/19 04:17:05;;;;;;;13.88;8.07;;;9.80;99.90;;;;;;4977272;28;20132;-80
2023/03/19 04:19:31;;;;;;;14.55;8.23;;;9.70;99.90;;;;;;4961085;28;20050;-80
2023/03/19 04:21:58;;;;;;;11.25;9.02;;;9.70;99.90;;;;;;4959295;28;20482;-81
2023/03/19 04:24:24;;;;;;;16.40;11.23;;;9.70;99.90;;;;;;4945136;28;20073;-80
2023/03/19 04:26:52;;;;;;;17.45;11.77;;;9.70;99.90;;;;;;4944215;28;20133;-81
2023/03/19 04:29:17;;;;;;;10.65;8.68;;;9.70;99.90;;;;;;4959969;28;20049;-80
2023/03/19 04:31:44;;;;;;;12.85;8.60;;;9.70;99.90;;;;;;4961410;28;20046;-80
2023/03/19 04:34:11;;;;;;;10.10;7.55;;;9.70;99.90;;;;;;4963423;28;20100;-81
2023/03/19 04:36:37;;;;;;;10.50;7.78;;;9.60;99.90;;;;;;4964668;28;20046;-80
2023/03/19 04:39:03;;;;;;;12.88;8.60;;;9.60;99.90;;;;;;4963979;28;20046;-80
2023/03/19 04:41:29;;;;;;;11.57;7.63;;;9.70;99.90;;;;;;4979615;28;20070;-80
2023/03/19 04:43:55;;;;;;;12.77;7.90;;;9.70;99.90;;;;;;4964867;28;20050;-80
2023/03/19 04:46:21;;;;;;;13.43;7.68;;;9.60;99.90;;;;;;4963461;28;20047;-80
2023/03/19 04:48:46;;;;;;;11.55;7.05;;;9.60;99.90;;;;;;4963631;28;20422;-80
2023/03/19 04:51:12;;;;;;;13.43;7.43;;;9.70;99.90;;;;;;4964302;28;20057;-80
2023/03/19 04:53:38;;;;;;;10.50;7.10;;;9.60;99.90;;;;;;4964987;28;20609;-80
2023/03/19 04:56:05;;;;;;;11.57;7.32;;;9.60;99.90;;;;;;4964054;28;20425;-80
2023/03/19 04:58:31;;;;;;;9.77;7.70;;;9.60;99.90;;;;;;4965818;28;20450;-80
2023/03/19 05:00:57;;;;;;;12.82;7.15;;;9.60;99.90;;;;;;4964579;28;20053;-80
2023/03/19 05:03:24;;;;;;;11.77;7.07;;;9.70;99.90;;;;;;4974380;28;20047;-80
2023/03/19 05:05:51;;;;;;;11.15;7.20;;;9.60;99.90;;;;;;4973919;28;20112;-80
2023/03/19 05:08:17;;;;;;;11.95;7.82;;;9.60;99.90;;;;;;4989111;28;20129;-80
2023/03/19 05:10:43;;;;;;;10.75;7.07;;;9.60;99.90;;;;;;4974047;28;20078;-80
2023/03/19 05:13:09;;;;;;;11.20;6.63;;;9.50;99.90;;;;;;4970614;28;20485;-81
2023/03/19 05:15:34;;;;;;;11.48;7.63;;;9.50;99.90;;;;;;4956662;28;20441;-80
2023/03/19 05:18:00;;;;;;;9.52;7.00;;;9.50;99.90;;;;;;4991951;28;20078;-80
2023/03/19 05:20:26;;;;;;;9.07;6.63;;;9.40;99.90;;;;;;4956718;28;20161;-81
2023/03/19 05:22:52;;;;;;;10.60;7.10;;;9.30;99.90;;;;;;4973079;28;20138;-81
2023/03/19 05:25:18;;;;;;;12.57;7.15;;;9.20;99.90;;;;;;4973041;28;20050;-80
2023/03/19 05:27:44;;;;;;;11.07;7.68;;;9.20;99.90;;;;;;4973633;28;20042;-81
2023/03/19 05:30:11;;;;;;;11.10;7.72;;;9.10;99.90;;;;;;4988820;28;20047;-81
2023/03/19 05:32:39;;;;;;;11.30;7.13;;;9.10;99.90;;;;;;4956183;28;20057;-81
2023/03/19 05:35:05;;;;;;;14.18;7.53;;;9.10;99.90;;;;;;4953037;28;20125;-80
2023/03/19 05:37:32;;;;;;;10.57;7.97;;;9.00;99.90;;;;;;4953680;28;20047;-81
2023/03/19 05:39:58;;;;;;;13.52;8.05;;;9.00;99.90;;;;;;4954252;28;20051;-81
2023/03/19 05:42:23;;;;;;;11.65;7.68;;;9.10;99.90;;;;;;4953287;28;20085;-80
2023/03/19 05:44:49;;;;;;;11.40;7.95;;;9.00;99.90;;;;;;4937242;28;20512;-80
2023/03/19 05:47:15;;;;;;;12.23;8.18;;;9.00;99.90;;;;;;4954466;28;20087;-81
2023/03/19 05:49:41;;;;;;;12.52;7.43;;;9.00;99.90;;;;;;4938023;28;20046;-81
2023/03/19 05:52:06;;;;;;;12.93;8.07;;;9.00;99.90;;;;;;4937059;28;20050;-81
2023/03/19 05:54:32;;;;;;;12.02;7.47;;;9.00;99.90;;;;;;4938079;28;20050;-80
2023/03/19 05:56:58;;;;;;;11.88;8.02;;;9.00;99.90;;;;;;4971176;28;20415;-80
2023/03/19 05:59:24;;;;;;;9.63;7.35;;;8.90;99.90;;;;;;4938262;28;20079;-81
2023/03/19 06:01:50;;;;;;;9.20;7.57;;;8.90;99.90;;;;;;4937595;28;20045;-80
2023/03/19 06:04:16;;;;;;;11.18;8.20;;;8.80;99.90;;;;;;4937285;28;20043;-80
2023/03/19 06:06:41;;;;;;;14.70;8.82;;;8.80;99.90;;;;;;4952704;28;20133;-80
2023/03/19 06:09:07;;;;;;;11.77;7.65;;;8.60;99.90;;;;;;4954240;28;20047;-80
2023/03/19 06:11:33;;;;;;;11.10;8.15;;;8.60;99.90;;;;;;4953316;28;20508;-80
2023/03/19 06:13:59;;;;;;;13.15;8.40;;;8.60;99.90;;;;;;4953732;28;20402;-80
2023/03/19 06:16:24;;;;;;;13.15;8.27;;;8.60;99.90;;;;;;4953833;28;20043;-81
2023/03/19 06:18:50;;;;;;;11.70;8.57;;;8.50;99.90;;;;;;4937102;28;20047;-80
2023/03/19 06:21:16;;;;;;;13.75;8.98;;;8.50;99.90;;;;;;4937304;28;20467;-81
2023/03/19 06:23:41;;;;;;;14.25;8.95;;;8.40;99.90;;;;;;4965614;28;20500;-81
2023/03/19 06:26:08;;;;;;;15.90;9.68;;;8.40;99.90;;;;;;4974836;28;20452;-81
2023/03/19 06:28:33;;;;;;;13.57;9.20;;;8.40;99.90;;;;;;4972727;28;20039;-80
2023/03/19 06:30:59;;;;;;;12.80;9.02;;;8.40;99.90;;;;;;4972871;28;20490;-81
2023/03/19 06:33:26;;;;;;;14.75;9.77;;;8.40;99.90;;;;;;4971371;28;20030;-80
2023/03/19 06:35:52;;;;;;;15.55;9.70;;;8.40;99.90;;;;;;4971454;28;20066;-80
2023/03/19 06:38:18;;;;;;;18.15;10.48;;;8.50;99.90;;;;;;4955844;28;20042;-81
2023/03/19 06:40:44;;;;;;;17.35;10.38;;;8.60;99.90;;;;;;4971681;28;20046;-81
2023/03/19 06:43:10;;;;;;;14.32;10.75;;;8.60;99.90;;;;;;4970947;28;20410;-80
2023/03/19 06:45:36;;;;;;;15.23;10.25;;;8.70;99.90;;;;;;4967196;28;20075;-80
2023/03/19 06:48:02;;;;;;;18.02;11.32;;;8.80;99.90;;;;;;4945892;28;20047;-80
2023/03/19 06:50:27;;;;;;;15.25;9.93;;;8.80;99.90;;;;;;4963671;28;20045;-81
2023/03/19 06:52:53;;;;;;;14.50;11.00;;;8.80;99.90;;;;;;4961309;28;20038;-81
2023/03/19 06:55:19;;;;;;;15.00;10.63;;;8.90;99.90;;;;;;4977671;28;20129;-81
2023/03/19 06:57:49;;;;;;;14.38;10.18;;;8.90;99.90;;;;;;4939084;28;20039;-81
2023/03/19 07:00:17;;;;;;;16.17;9.90;;;9.00;99.90;;;;;;4951238;28;20503;-81
2023/03/19 07:02:43;;;;;;;14.63;10.05;;;9.00;99.90;;;;;;4936816;28;20038;-82
2023/03/19 07:05:09;;;;;;;17.02;10.40;;;9.10;99.90;;;;;;4968983;28;20069;-82
2023/03/19 07:07:34;;;;;;;16.20;9.82;;;9.20;99.90;;;;;;4935681;28;20058;-81
2023/03/19 07:10:00;;;;;;;13.73;9.43;;;9.20;99.90;;;;;;4952705;28;20375;-81
2023/03/19 07:12:26;;;;;;;16.27;10.82;;;9.20;99.90;;;;;;4969819;28;20503;-81
2023/03/19 07:14:55;;;;;;;13.70;10.57;;;9.10;99.90;;;;;;4951487;28;20093;-82
2023/03/19 07:17:22;;;;;;;11.40;9.20;;;9.20;99.90;;;;;;4952600;28;20042;-82
2023/03/19 07:19:47;;;;;;;18.02;10.30;;;9.20;99.90;;;;;;4960184;28;20486;-81
2023/03/19 07:22:13;;;;;;;15.90;10.15;;;9.20;99.90;;;;;;4945534;28;20042;-81
2023/03/19 07:24:39;;;;;;;14.57;10.75;;;9.30;99.90;;;;;;4945147;28;20054;-81
2023/03/19 07:27:05;;;;;;;16.05;11.13;;;9.30;99.90;;;;;;4966908;28;20050;-81
2023/03/19 07:29:31;;;;;;;14.45;11.48;;;9.40;99.90;;;;;;4983981;28;20126;-81
2023/03/19 07:31:56;;;;;;;15.43;11.50;;;9.40;99.90;;;;;;4960483;28;20053;-81
2023/03/19 07:34:22;;;;;;;16.35;11.55;;;9.40;99.90;;;;;;4938903;28;20137;-82
2023/03/19 07:36:48;;;;;;;17.15;13.15;;;9.50;99.90;;;;;;4968632;28;20039;-82
2023/03/19 07:39:14;;;;;;;19.67;13.95;;;9.50;99.90;;;;;;4955167;28;20042;-82
2023/03/19 07:41:40;;;;;;;23.63;14.15;;;9.60;99.90;;;;;;4955003;28;20050;-82
2023/03/19 07:44:05;;;;;;;17.95;13.77;;;9.60;99.90;;;;;;4970612;28;20062;-82
2023/03/19 07:46:31;;;;;;;19.45;14.57;;;9.70;99.90;;;;;;4967992;28;20201;-81
2023/03/19 07:48:57;;;;;;;18.88;15.57;;;9.70;99.90;;;;;;4970916;28;20062;-81
2023/03/19 07:51:23;;;;;;;22.73;16.80;;;9.80;99.90;;;;;;4969693;28;20057;-81
2023/03/19 07:53:49;;;;;;;21.55;16.88;;;9.90;99.90;;;;;;4971355;28;20053;-81
2023/03/19 07:56:15;;;;;;;21.60;16.75;;;10.10;99.90;;;;;;4970750;28;20057;-82
2023/03/19 07:58:41;;;;;;;22.30;16.85;;;10.10;99.90;;;;;;4970444;28;20050;-81
2023/03/19 08:01:07;;;;;;;19.67;16.55;;;10.30;99.90;;;;;;4970554;28;20065;-81
2023/03/19 08:03:33;;;;;;;23.70;16.42;;;10.30;99.90;;;;;;4970494;28;20050;-82
2023/03/19 08:05:58;;;;;;;24.45;16.45;;;10.40;99.90;;;;;;4970836;28;20065;-81
2023/03/19 08:08:24;;;;;;;22.88;17.25;;;10.50;99.90;;;;;;4974839;28;20042;-82
2023/03/19 08:10:53;;;;;;;20.42;15.90;;;10.60;99.90;;;;;;4973909;28;20147;-81
2023/03/19 08:13:19;;;;;;;24.17;16.80;;;10.60;99.90;;;;;;4958276;28;20486;-82
2023/03/19 08:15:44;;;;;;;23.85;16.48;;;10.70;99.90;;;;;;4974889;28;20057;-82
2023/03/19 08:18:10;;;;;;;18.95;14.88;;;10.80;99.90;;;;;;4973608;28;20401;-82
2023/03/19 08:20:36;;;;;;;18.42;15.30;;;10.90;99.90;;;;;;4974053;28;20043;-82
2023/03/19 08:23:02;;;;;;;18.63;14.27;;;11.00;99.90;;;;;;4960307;28;20050;-82
2023/03/19 08:25:31;;;;;;;21.35;14.23;;;11.10;99.90;;;;;;4938684;28;20057;-82
2023/03/19 08:27:57;;;;;;;20.58;13.90;;;11.20;99.90;;;;;;4939837;28;20057;-82
2023/03/19 08:30:23;;;;;;;17.75;14.35;;;11.20;99.90;;;;;;4938849;28;20050;-83
2023/03/19 08:32:49;;;;;;;17.50;13.60;;;11.20;99.90;;;;;;4947136;28;20098;-82
2023/03/19 08:35:15;;;;;;;18.42;14.93;;;11.20;99.90;;;;;;4954372;28;20055;-81
2023/03/19 08:37:41;;;;;;;22.00;15.75;;;11.20;99.90;;;;;;4955572;28;20066;-81
2023/03/19 08:40:08;;;;;;;23.35;16.63;;;11.40;99.90;;;;;;4954420;28;20055;-82
2023/03/19 08:42:33;;;;;;;22.77;17.05;;;11.40;99.90;;;;;;4954680;28;20422;-81
2023/03/19 08:44:59;;;;;;;22.90;17.63;;;11.40;99.90;;;;;;4971153;28;20122;-82
2023/03/19 08:47:25;;;;;;;20.45;15.75;;;11.40;99.90;;;;;;4953714;28;20047;-82
2023/03/19 08:49:51;;;;;;;17.33;14.38;;;11.40;99.90;;;;;;4957565;28;20088;-81
2023/03/19 08:52:18;;;;;;;21.20;13.65;;;11.50;99.90;;;;;;4973904;28;20043;-82
2023/03/19 08:54:44;;;;;;;17.80;14.75;;;11.40;99.90;;;;;;4956767;28;20097;-82
2023/03/19 08:57:10;;;;;;;18.25;14.18;;;11.60;99.90;;;;;;4958102;28;20046;-82
2023/03/19 08:59:36;;;;;;;18.67;13.77;;;11.70;99.90;;;;;;4967907;28;20037;-82
2023/03/19 09:02:02;;;;;;;22.75;15.27;;;11.80;99.90;;;;;;4949388;28;20145;-82
2023/03/19 09:04:28;;;;;;;19.33;15.05;;;11.80;99.90;;;;;;4965549;28;20049;-82
2023/03/19 09:06:54;;;;;;;16.98;13.38;;;11.70;99.90;;;;;;4961367;28;20050;-82
2023/03/19 09:09:22;;;;;;;19.25;15.50;;;11.60;99.90;;;;;;4962349;28;20626;-82
2023/03/19 09:11:48;;;;;;;17.55;14.73;;;11.70;99.90;;;;;;4989825;28;20126;-82
2023/03/19 09:14:15;;;;;;;20.33;14.07;;;11.80;99.90;;;;;;4991276;28;20153;-82
2023/03/19 09:16:42;;;;;;;18.77;15.20;;;11.80;99.90;;;;;;4973354;28;20489;-81
2023/03/19 09:19:08;;;;;;;19.13;14.02;;;11.70;99.90;;;;;;4974295;28;20427;-82
2023/03/19 09:21:35;;;;;;;17.10;12.27;;;11.70;99.90;;;;;;4956367;28;20108;-82
2023/03/19 09:24:01;;;;;;;14.13;11.43;;;11.80;99.90;;;;;;4947109;28;20061;-82
2023/03/19 09:26:27;;;;;;;14.65;11.02;;;11.90;99.90;;;;;;4964556;28;20137;-83
2023/03/19 09:28:53;;;;;;;17.42;10.02;;;11.90;99.90;;;;;;4971629;28;20128;-83
2023/03/19 09:31:19;;;;;;;12.13;9.50;;;12.10;99.90;;;;;;4974028;28;20050;-82
2023/03/19 09:33:45;;;;;;;12.57;10.00;;;12.30;99.90;;;;;;4938629;28;20445;-82
2023/03/19 09:36:10;;;;;;;13.27;9.48;;;12.50;99.90;;;;;;4936891;28;20055;-81
2023/03/19 09:38:36;;;;;;;13.70;10.45;;;12.60;99.90;;;;;;4970269;28;20046;-81
2023/03/19 09:41:06;;;;;;;15.73;9.63;;;12.60;99.90;;;;;;4937737;28;20046;-82
2023/03/19 09:43:40;;;;;;;13.40;10.02;;;12.60;99.90;;;;;;4953472;28;20077;-82
2023/03/19 09:46:15;;;;;;;11.70;9.00;;;12.60;99.90;;;;;;4953765;28;20129;-82
2023/03/19 09:48:56;;;;;;;11.20;9.68;;;12.50;99.90;;;;;;4971062;28;20085;-82
2023/03/19 09:51:30;;;;;;;12.48;8.32;;;12.40;99.90;;;;;;4979548;28;20061;-81
2023/03/19 09:54:02;;;;;;;11.45;9.45;;;12.30;99.90;;;;;;4954214;28;20050;-82
2023/03/19 09:56:30;;;;;;;13.50;9.15;;;12.20;99.90;;;;;;4972680;28;20042;-81
2023/03/19 09:58:56;;;;;;;11.27;9.00;;;12.10;99.90;;;;;;4973291;28;20121;-82
2023/03/19 10:01:25;;;;;;;12.70;8.95;;;12.10;99.90;;;;;;4972369;28;20129;-82
2023/03/19 10:04:01;;;;;;;16.17;9.45;;;12.10;99.90;;;;;;4972514;28;20721;-82
2023/03/19 10:06:32;;;;;;;10.80;8.77;;;12.20;99.90;;;;;;4972737;28;20101;-82
2023/03/19 10:09:03;;;;;;;14.15;9.77;;;12.30;99.90;;;;;;4973142;28;20054;-82
2023/03/19 10:11:39;;;;;;;14.48;9.50;;;12.40;99.90;;;;;;4972254;28;20050;-82
2023/03/19 10:14:36;;;;;;;14.52;10.52;;;12.40;99.90;;;;;;4973195;28;20113;-82
2023/03/19 10:17:06;;;;;;;13.38;9.55;;;12.50;99.90;;;;;;4972590;28;20072;-82
2023/03/19 10:19:48;;;;;;;12.75;9.85;;;12.50;99.90;;;;;;4972519;28;20145;-83
2023/03/19 10:22:20;;;;;;;18.33;9.77;;;12.40;99.90;;;;;;4972371;28;20050;-82
2023/03/19 10:24:49;;;;;;;14.38;9.30;;;12.40;99.90;;;;;;4989232;28;20505;-83
2023/03/19 10:27:18;;;;;;;13.27;9.48;;;12.40;99.90;;;;;;4972891;28;20046;-82
2023/03/19 10:29:45;;;;;;;11.48;9.10;;;12.40;99.90;;;;;;4971579;28;20554;-83
2023/03/19 10:32:33;;;;;;;11.90;9.35;;;12.40;99.90;;;;;;4968451;28;20450;-80
2023/03/19 10:35:07;;;;;;;15.98;8.57;;;12.40;99.90;;;;;;4952895;28;20055;-80
2023/03/19 10:37:34;;;;;;;12.57;9.70;;;12.60;99.90;;;;;;4969389;28;20054;-80
2023/03/19 10:40:01;;;;;;;13.00;9.88;;;12.60;99.90;;;;;;4968103;28;20448;-81
2023/03/19 10:42:32;;;;;;;14.05;10.30;;;12.70;99.90;;;;;;4969183;28;20055;-81
2023/03/19 10:45:12;;;;;;;14.63;10.25;;;12.80;99.90;;;;;;4968656;28;20522;-81
2023/03/19 10:47:39;;;;;;;14.48;10.65;;;12.80;99.90;;;;;;4951914;28;20094;-81
2023/03/19 10:50:06;;;;;;;13.02;11.13;;;12.90;99.90;;;;;;4968086;28;20043;-81
2023/03/19 10:52:35;;;;;;;12.60;10.02;;;12.90;99.90;;;;;;4968374;28;20051;-80
2023/03/19 10:55:14;;;;;;;13.48;10.70;;;12.90;99.90;;;;;;4952592;28;20051;-80
2023/03/19 10:57:43;;;;;;;13.30;10.20;;;12.90;99.90;;;;;;4969311;28;20188;-81
2023/03/19 11:00:21;;;;;;;12.10;9.07;;;13.10;99.90;;;;;;4967976;28;20050;-81
2023/03/19 11:02:52;;;;;;;12.35;8.77;;;13.30;99.90;;;;;;4968854;28;20514;-80
2023/03/19 11:05:21;;;;;;;13.95;9.85;;;13.30;99.90;;;;;;4953695;28;20047;-81
2023/03/19 11:07:53;;;;;;;13.70;9.27;;;13.30;99.90;;;;;;4936311;28;20050;-81
2023/03/19 11:10:19;;;;;;;13.18;9.18;;;13.30;99.90;;;;;;4952829;28;20050;-81
2023/03/19 11:12:50;;;;;;;13.93;9.77;;;13.30;99.90;;;;;;4953056;28;20073;-82
2023/03/19 11:15:22;;;;;;;15.35;10.73;;;13.30;99.90;;;;;;4951483;28;20405;-82
2023/03/19 11:17:56;;;;;;;14.00;9.75;;;13.30;99.90;;;;;;4944072;28;20125;-81
2023/03/19 11:20:28;;;;;;;12.15;9.43;;;13.30;99.90;;;;;;4961844;28;20058;-81
2023/03/19 11:22:55;;;;;;;13.85;10.35;;;13.20;99.90;;;;;;4970410;28;20053;-81
2023/03/19 11:25:28;;;;;;;13.73;9.93;;;13.20;99.90;;;;;;4971483;28;20065;-81
2023/03/19 11:28:00;;;;;;;15.85;10.50;;;13.20;99.90;;;;;;4970969;28;20057;-81
2023/03/19 11:30:34;;;;;;;15.55;10.38;;;13.20;99.90;;;;;;4987394;28;20100;-81
2023/03/19 11:33:24;;;;;;;13.07;10.52;;;13.20;99.90;;;;;;4955679;28;20185;-82
2023/03/19 11:36:03;;;;;;;15.00;11.23;;;13.20;99.90;;;;;;4969803;28;20148;-81
2023/03/19 11:38:43;;;;;;;13.68;11.38;;;13.20;99.90;;;;;;4971553;28;20062;-81
2023/03/19 11:41:21;;;;;;;18.92;12.98;;;13.20;99.90;;;;;;4971549;28;20104;-81
2023/03/19 11:43:57;;;;;;;14.63;11.63;;;13.30;99.90;;;;;;4954589;28;20494;-81
2023/03/19 11:46:33;;;;;;;16.25;10.43;;;13.40;99.90;;;;;;4971274;28;20054;-82
2023/03/19 11:49:24;;;;;;;13.05;11.10;;;13.50;99.90;;;;;;4971407;28;20053;-81
2023/03/19 11:51:59;;;;;;;13.13;9.98;;;13.60;99.90;;;;;;4988106;28;20050;-81
2023/03/19 11:54:56;;;;;;;12.63;10.50;;;13.70;99.90;;;;;;4971471;28;20057;-80
2023/03/19 11:57:41;;;;;;;13.73;11.88;;;13.80;99.90;;;;;;4970438;28;20054;-82
2023/03/19 12:00:21;;;;;;;12.85;10.60;;;14.00;99.90;;;;;;4970720;28;20129;-81
2023/03/19 12:02:56;;;;;;;12.68;9.95;;;14.10;99.90;;;;;;4954091;28;20095;-81
2023/03/19 12:05:32;;;;;;;12.25;9.60;;;14.20;99.90;;;;;;4970287;28;20050;-81
2023/03/19 12:08:26;;;;;;;13.07;10.80;;;14.20;99.90;;;;;;4955405;28;20125;-81
2023/03/19 12:11:05;;;;;;;14.27;10.57;;;14.30;99.90;;;;;;4970449;28;20098;-80
2023/03/19 12:13:55;;;;;;;12.20;10.63;;;14.40;99.90;;;;;;4971469;28;20057;-81
2023/03/19 12:16:21;;;;;;;13.73;11.15;;;14.40;99.90;;;;;;4970554;28;20384;-81
2023/03/19 12:18:54;;;;;;;13.13;10.68;;;14.40;99.90;;;;;;4970508;28;20047;-81
2023/03/19 12:21:28;;;;;;;;;;;14.40;99.90;;;;;;4969989;28;20096;-81
2023/03/19 12:24:03;;;;;;;13.63;11.35;;;14.20;99.90;;;;;;4970291;28;20020;-80
2023/03/19 12:26:57;;;;;;;13.45;10.57;;;14.10;99.90;;;;;;4971398;28;20054;-81
2023/03/19 12:29:38;;;;;;;15.13;11.60;;;14.10;99.90;;;;;;4971776;28;20054;-81
2023/03/19 12:32:31;;;;;;;14.50;11.60;;;14.00;99.90;;;;;;4965570;28;20510;-81
2023/03/19 12:35:03;;;;;;;14.25;10.65;;;14.00;99.90;;;;;;4950994;28;20054;-81
2023/03/19 12:37:35;;;;;;;16.97;11.37;;;14.00;99.90;;;;;;4967855;28;20042;-81
2023/03/19 12:40:21;;;;;;;14.57;10.60;;;13.90;99.90;;;;;;4951068;28;20043;-81
2023/03/19 12:42:47;;;;;;;13.63;9.80;;;13.90;99.90;;;;;;4968617;28;20142;-81
2023/03/19 12:45:29;;;;;;;16.13;12.77;;;13.90;99.90;;;;;;4949518;28;20278;-81